Shinzan Maru — V7WN7 — position and weather

sailwx.info

Track history (hours):
 
Tides and Currents Weather Stations Pressure Air Temp Water Temp Dewpoint Dewpoint Depression Visibility Wind Speed Wind Dir Waves Ship Positions

Shinzan Maru

Last reported at 2018-Jan-22 17:16 UTC. Time now 2018-Jan-23 11:57 UTC.
Position N 41°19' E 140°10'.

Length 320 m; draft 10 m.

Type: Cargo ship. MMSI: 538004348.

Date/timePositionNaut miles runAvg speedWind from/ knotsBaromVisibWave heightAir tempDewpointWater temp
2018-Jan-22 17:16N 41°19' E 140°10'411.2
2018-Jan-22 16:53N 41°21' E 140°14'411.3
2018-Jan-22 16:30N 41°24' E 140°19'712.6
2018-Jan-22 15:59N 41°28' E 140°26'612.1
2018-Jan-22 15:30N 41°31' E 140°32'613.1
2018-Jan-22 15:00N 41°35' E 140°39'612.2
2018-Jan-22 14:30N 41°38' E 140°46'612.3
2018-Jan-22 14:00N 41°38' E 140°54'612.4
2018-Jan-22 13:30N 41°38' E 141°03'713.7
2018-Jan-22 13:00N 41°38' E 141°12'713.3
2018-Jan-22 12:30N 41°38' E 141°21'712.6
2018-Jan-22 11:57N 41°38' E 141°30'  
Track history (hours):
 
Tides and Currents Weather Stations Pressure Air Temp Water Temp Dewpoint Dewpoint Depression Visibility Wind Speed Wind Dir Waves Ship Positions

Shinzan Maru

Last reported at 2018-Jan-22 17:16 UTC. Time now 2018-Jan-23 11:57 UTC.
Position N 41°19' E 140°10'.

Length 320 m; draft 10 m.

Type: Cargo ship. MMSI: 538004348.

Date/timePositionNaut miles runAvg speedWind from/ knotsBaromVisibWave heightAir tempDewpointWater temp
2018-Jan-22 17:16N 41°19' E 140°10'411.2
2018-Jan-22 16:53N 41°21' E 140°14'411.3
2018-Jan-22 16:30N 41°24' E 140°19'712.6
2018-Jan-22 15:59N 41°28' E 140°26'612.1
2018-Jan-22 15:30N 41°31' E 140°32'613.1
2018-Jan-22 15:00N 41°35' E 140°39'612.2
2018-Jan-22 14:30N 41°38' E 140°46'612.3
2018-Jan-22 14:00N 41°38' E 140°54'612.4
2018-Jan-22 13:30N 41°38' E 141°03'713.7
2018-Jan-22 13:00N 41°38' E 141°12'713.3
2018-Jan-22 12:30N 41°38' E 141°21'712.6
2018-Jan-22 11:57N 41°38' E 141°30'  

Dump ship's entire track history